createdAt,value
2019-02-10T00:00:33.817Z,97965.55
2019-02-10T00:05:40.183Z,97969.88
2019-02-10T00:10:45.026Z,97973.30
2019-02-10T00:15:49.765Z,97974.54
2019-02-10T00:20:54.416Z,97970.19
2019-02-10T00:25:59.150Z,97977.33
2019-02-10T00:31:03.900Z,97980.64
2019-02-10T00:36:08.846Z,97977.46
2019-02-10T00:41:13.589Z,97974.02
2019-02-10T00:46:18.633Z,97972.42
2019-02-10T00:51:23.478Z,97966.64
2019-02-10T00:56:28.223Z,97963.96
2019-02-10T01:01:32.968Z,97954.59
2019-02-10T01:06:41.540Z,97946.83
2019-02-10T01:11:43.835Z,97951.57
2019-02-10T01:16:48.524Z,97947.72
2019-02-10T01:21:53.527Z,97951.05
2019-02-10T01:26:58.321Z,97947.84
2019-02-10T01:32:02.875Z,97950.38
2019-02-10T01:37:07.588Z,97949.25
2019-02-10T01:42:12.482Z,97938.92
2019-02-10T01:47:18.095Z,97929.75
2019-02-10T01:52:22.743Z,97935.69
2019-02-10T01:57:28.110Z,97937.02
2019-02-10T02:02:33.149Z,97947.66
2019-02-10T02:07:38.812Z,97942.81
2019-02-10T02:12:43.442Z,97941.77
2019-02-10T02:17:48.503Z,97939.19
2019-02-10T02:22:53.131Z,97940.91
2019-02-10T02:27:57.886Z,97946.27
2019-02-10T02:33:02.620Z,97945.09
2019-02-10T02:38:07.155Z,97948.63
2019-02-10T02:43:11.920Z,97951.75
2019-02-10T02:48:16.649Z,97946.05
2019-02-10T02:53:21.227Z,97949.80
2019-02-10T02:58:25.929Z,97952.51
2019-02-10T03:03:30.662Z,97939.20
2019-02-10T03:08:35.430Z,97928.55
2019-02-10T03:13:39.977Z,97920.82
2019-02-10T03:18:52.817Z,97917.86
2019-02-10T03:23:51.280Z,97920.26
2019-02-10T03:28:55.813Z,97922.69
2019-02-10T03:34:00.449Z,97917.58
2019-02-10T03:39:05.821Z,97920.00
2019-02-10T03:44:10.557Z,97921.91
2019-02-10T03:49:15.198Z,97924.36
2019-02-10T03:54:19.830Z,97938.33
2019-02-10T03:59:24.580Z,97928.23
2019-02-10T04:04:29.321Z,97935.41
2019-02-10T04:09:33.959Z,97933.53
2019-02-10T04:14:38.942Z,97926.56
2019-02-10T04:19:43.656Z,97936.37
2019-02-10T04:24:48.288Z,97920.94
2019-02-10T04:29:54.057Z,97931.02
2019-02-10T04:34:58.812Z,97930.09
2019-02-10T04:40:03.545Z,97920.62
2019-02-10T04:45:08.490Z,97916.06
2019-02-10T04:50:13.123Z,97911.84
2019-02-10T04:55:17.771Z,97918.14
2019-02-10T05:00:22.504Z,97925.42
2019-02-10T05:05:28.798Z,97930.34
2019-02-10T05:10:33.535Z,97926.96
2019-02-10T05:15:38.581Z,97936.23
2019-02-10T05:20:43.426Z,97941.24
2019-02-10T05:25:48.170Z,97956.41
2019-02-10T05:30:52.808Z,97952.70
2019-02-10T05:35:57.556Z,97960.79
2019-02-10T05:41:02.297Z,97965.63
2019-02-10T05:46:07.041Z,97968.63
2019-02-10T05:51:11.781Z,97967.63
2019-02-10T05:56:16.520Z,97979.61
2019-02-10T06:01:57.924Z,97988.35
2019-02-10T06:07:05.638Z,97986.97
2019-02-10T06:12:10.219Z,97990.07
2019-02-10T06:17:15.386Z,97987.64
2019-02-10T06:22:20.177Z,97985.55
2019-02-10T06:27:24.811Z,97985.84
2019-02-10T06:32:29.551Z,97987.58
2019-02-10T06:37:34.293Z,97990.59
2019-02-10T06:42:39.037Z,97987.16
2019-02-10T06:47:43.667Z,97984.22
2019-02-10T06:52:48.619Z,97992.09
2019-02-10T06:57:53.222Z,97996.12
2019-02-10T07:03:31.491Z,97992.04
2019-02-10T07:08:36.541Z,97981.63
2019-02-10T07:13:46.914Z,97992.94
2019-02-10T07:19:28.827Z,97993.71
2019-02-10T07:24:45.680Z,97994.47
2019-02-10T07:30:08.827Z,97999.55
2019-02-10T07:35:32.767Z,97989.75
2019-02-10T07:40:52.619Z,97987.64
2019-02-10T07:46:23.676Z,97987.47
2019-02-10T07:51:55.658Z,97978.08
2019-02-10T07:57:11.867Z,97983.48
2019-02-10T08:02:45.180Z,97977.27
2019-02-10T08:07:58.709Z,97974.09
2019-02-10T08:13:09.902Z,97959.68
2019-02-10T08:18:18.062Z,97961.56
2019-02-10T08:23:28.673Z,97958.97
2019-02-10T08:28:36.342Z,97961.02
2019-02-10T08:33:44.665Z,97958.80
2019-02-10T08:39:12.240Z,97961.86
2019-02-10T08:44:23.442Z,97956.53
2019-02-10T08:49:47.674Z,97957.21
2019-02-10T08:54:52.788Z,97958.46
2019-02-10T08:59:57.529Z,97954.86
2019-02-10T09:05:02.997Z,97954.69
2019-02-10T09:10:11.940Z,97952.50
2019-02-10T09:15:17.092Z,97949.15
2019-02-10T09:20:22.137Z,97950.37
2019-02-10T09:25:26.980Z,97948.58
2019-02-10T09:30:31.721Z,97944.66
2019-02-10T09:35:36.570Z,97933.45
2019-02-10T09:40:41.412Z,97936.10
2019-02-10T09:45:46.058Z,97920.61
2019-02-10T09:50:52.535Z,97925.98
2019-02-10T09:55:57.379Z,97911.38
2019-02-10T10:01:02.535Z,97913.92
2019-02-10T10:06:07.175Z,97902.84
2019-02-10T10:11:11.920Z,97898.45
2019-02-10T10:16:16.928Z,97889.52
2019-02-10T10:21:21.709Z,97879.62
2019-02-10T10:26:26.664Z,97870.34
2019-02-10T10:31:31.399Z,97858.53
2019-02-10T10:36:36.349Z,97845.22
2019-02-10T10:41:41.096Z,97842.83
2019-02-10T10:46:46.141Z,97833.18
2019-02-10T10:51:50.798Z,97821.77
2019-02-10T10:56:55.776Z,97822.92
2019-02-10T11:02:01.090Z,97814.14
2019-02-10T11:07:06.148Z,97805.75
2019-02-10T11:12:11.695Z,97802.76
2019-02-10T11:17:16.873Z,97793.17
2019-02-10T11:22:23.037Z,97789.84
2019-02-10T11:27:27.889Z,97783.16
2019-02-10T11:32:32.827Z,97770.91
2019-02-10T11:37:37.777Z,97769.12
2019-02-10T11:42:42.514Z,97765.88
2019-02-10T11:47:47.160Z,97754.45
2019-02-10T11:52:51.702Z,97740.41
2019-02-10T11:57:56.442Z,97741.56
2019-02-10T12:03:01.387Z,97737.96
2019-02-10T12:08:06.133Z,97727.12
2019-02-10T12:13:11.080Z,97725.41
2019-02-10T12:18:16.226Z,97709.45
2019-02-10T12:23:21.179Z,97696.59
2019-02-10T12:28:25.920Z,97691.16
2019-02-10T12:33:30.770Z,97682.50
2019-02-10T12:38:35.620Z,97668.04
2019-02-10T12:43:40.705Z,97665.92
2019-02-10T12:48:45.511Z,97662.37
2019-02-10T12:53:50.251Z,97654.98
2019-02-10T12:58:55.923Z,97655.44
2019-02-10T13:04:01.356Z,97649.75
2019-02-10T13:09:08.577Z,97646.74
2019-02-10T13:14:14.142Z,97640.94
2019-02-10T13:19:20.555Z,97642.70
2019-02-10T13:24:26.118Z,97626.70
2019-02-10T13:29:31.135Z,97622.34
2019-02-10T13:34:35.964Z,97627.62
2019-02-10T13:39:43.799Z,97625.90
2019-02-10T13:44:48.986Z,97619.80
2019-02-10T13:49:54.516Z,97608.60
2019-02-10T13:54:59.583Z,97607.48
2019-02-10T14:00:09.332Z,97610.11
2019-02-10T14:05:13.978Z,97610.35
2019-02-10T14:10:25.300Z,97604.91
2019-02-10T14:15:26.014Z,97607.22
2019-02-10T14:20:30.660Z,97596.84
2019-02-10T14:25:35.396Z,97594.92
2019-02-10T14:30:40.556Z,97597.35
2019-02-10T14:35:45.296Z,97599.43
2019-02-10T14:40:50.038Z,97601.05
2019-02-10T14:45:54.998Z,97590.27
2019-02-10T14:51:01.230Z,97588.30
2019-02-10T14:56:06.998Z,97591.78
2019-02-10T15:01:11.992Z,97585.80
2019-02-10T15:06:17.128Z,97585.28
2019-02-10T15:11:24.550Z,97581.23
2019-02-10T15:16:29.494Z,97582.40
2019-02-10T15:21:34.335Z,97584.89
2019-02-10T15:26:41.413Z,97581.42
2019-02-10T15:31:46.078Z,97573.97
2019-02-10T15:36:51.430Z,97574.45
2019-02-10T15:41:56.175Z,97569.04
2019-02-10T15:47:00.818Z,97567.88
2019-02-10T15:52:07.083Z,97569.00
2019-02-10T15:57:12.570Z,97559.27
2019-02-10T16:02:17.447Z,97554.83
2019-02-10T16:07:22.560Z,97553.14
2019-02-10T16:12:28.121Z,97551.75
2019-02-10T16:17:33.473Z,97559.61
2019-02-10T16:22:38.435Z,97560.90
2019-02-10T16:27:43.580Z,97560.48
2019-02-10T16:32:50.378Z,97570.78
2019-02-10T16:37:56.719Z,97571.69
2019-02-10T16:43:02.928Z,97566.69
2019-02-10T16:48:08.074Z,97571.03
2019-02-10T16:53:15.372Z,97573.15
2019-02-10T16:58:24.454Z,97576.33
2019-02-10T17:03:32.116Z,97567.30
2019-02-10T17:08:38.875Z,97570.16
2019-02-10T17:13:45.409Z,97569.81
2019-02-10T17:18:50.256Z,97565.56
2019-02-10T17:23:55.706Z,97565.28
2019-02-10T17:29:01.716Z,97567.80
2019-02-10T17:34:07.393Z,97560.98
2019-02-10T17:39:13.472Z,97545.50
2019-02-10T17:44:18.175Z,97542.16
2019-02-10T17:49:22.911Z,97548.02
2019-02-10T17:54:27.553Z,97542.13
2019-02-10T17:59:32.402Z,97524.22
2019-02-10T18:04:37.739Z,97529.70
2019-02-10T18:09:42.705Z,97527.62
2019-02-10T18:15:01.273Z,97529.71
2019-02-10T18:20:21.618Z,97523.22
2019-02-10T18:25:46.085Z,97526.76
2019-02-10T18:31:01.271Z,97530.36
2019-02-10T18:36:13.928Z,97521.54
2019-02-10T18:41:23.170Z,97520.86
2019-02-10T18:46:39.491Z,97514.07
2019-02-10T18:51:46.433Z,97508.05
2019-02-10T18:56:58.800Z,97502.45
2019-02-10T19:02:14.896Z,97502.78
2019-02-10T19:07:21.273Z,97495.06
2019-02-10T19:12:36.560Z,97485.34
2019-02-10T19:17:48.673Z,97494.58
2019-02-10T19:23:00.841Z,97488.69
2019-02-10T19:28:22.427Z,97482.80
2019-02-10T19:33:46.933Z,97490.83
2019-02-10T19:39:02.327Z,97493.98
2019-02-10T19:44:10.472Z,97490.71
2019-02-10T19:49:23.177Z,97493.00
2019-02-10T19:54:29.719Z,97493.55
2019-02-10T19:59:52.427Z,97489.70
2019-02-10T20:05:10.999Z,97487.94
2019-02-10T20:10:18.173Z,97482.36
2019-02-10T20:15:26.921Z,97468.05
2019-02-10T20:20:42.222Z,97474.19
2019-02-10T20:26:04.617Z,97461.49
2019-02-10T20:31:11.074Z,97453.80
2019-02-10T20:36:17.230Z,97452.19
2019-02-10T20:41:27.072Z,97433.52
2019-02-10T20:46:36.059Z,97419.40
2019-02-10T20:51:54.711Z,97422.66
2019-02-10T20:57:06.839Z,97410.44
2019-02-10T21:02:15.996Z,97411.05
2019-02-10T21:07:40.278Z,97408.75
2019-02-10T21:12:50.647Z,97388.89
2019-02-10T21:17:59.907Z,97391.86
2019-02-10T21:23:06.074Z,97376.28
2019-02-10T21:28:19.212Z,97353.22
2019-02-10T21:33:25.786Z,97353.02
2019-02-10T21:38:31.977Z,97357.69
2019-02-10T21:43:44.102Z,97343.08
2019-02-10T21:48:50.372Z,97338.88
2019-02-10T21:53:54.951Z,97350.17
2019-02-10T21:58:59.550Z,97330.14
2019-02-10T22:04:04.288Z,97330.80
2019-02-10T22:09:08.931Z,97322.48
2019-02-10T22:14:14.289Z,97316.88
2019-02-10T22:19:19.030Z,97310.60
2019-02-10T22:24:23.561Z,97325.67
2019-02-10T22:29:28.217Z,97315.27
2019-02-10T22:34:32.951Z,97302.96
2019-02-10T22:39:37.798Z,97291.45
2019-02-10T22:44:42.540Z,97290.33
2019-02-10T22:49:47.383Z,97283.52
2019-02-10T22:54:52.026Z,97272.78
2019-02-10T22:59:56.869Z,97269.86
2019-02-10T23:05:02.418Z,97255.19
2019-02-10T23:10:09.075Z,97247.34
2019-02-10T23:15:14.669Z,97240.66
2019-02-10T23:20:19.324Z,97230.91
2019-02-10T23:25:23.967Z,97221.41
2019-02-10T23:30:28.597Z,97237.08
2019-02-10T23:35:33.347Z,97225.48
2019-02-10T23:40:38.296Z,97224.47
2019-02-10T23:45:42.934Z,97210.21
2019-02-10T23:50:47.511Z,97213.53
2019-02-10T23:55:52.135Z,97208.16
